Time;durP1;ratioP1;P1;durP2;ratioP2;P2;SDS_P1;SDS_P2;PMS_P1;PMS_P2;Temp;Humidity;BMP_temperature;BMP_pressure;BME280_temperature;BME280_humidity;BME280_pressure;Samples;Min_cycle;Max_cycle;Signal;HPM_P1;HPM_P2
2023/08/26 00:01:45;;;;;;;12.83;6.73;;;;;;;25.85;68.89;100269.36;124977;1102;102356;-76
2023/08/26 00:04:17;;;;;;;12.30;6.23;;;;;;;25.86;68.64;100270.27;124836;1102;101905;-77
2023/08/26 00:06:48;;;;;;;15.13;6.73;;;;;;;25.86;68.99;100278.32;124831;1102;104205;-78
2023/08/26 00:09:19;;;;;;;12.23;6.57;;;;;;;25.84;68.79;100273.86;125027;1102;102019;-78
2023/08/26 00:11:52;;;;;;;14.70;6.77;;;;;;;25.81;69.10;100273.95;125094;1102;102300;-77
2023/08/26 00:14:23;;;;;;;14.00;6.67;;;;;;;25.78;68.83;100273.19;125048;1099;101900;-78
2023/08/26 00:16:54;;;;;;;11.40;7.07;;;;;;;25.75;69.20;100276.83;125186;1099;104240;-78
2023/08/26 00:19:25;;;;;;;11.77;6.73;;;;;;;25.73;69.36;100278.70;125178;1099;104060;-78
2023/08/26 00:21:57;;;;;;;14.33;6.73;;;;;;;25.70;69.19;100281.48;125028;1099;104201;-77
2023/08/26 00:24:28;;;;;;;13.70;6.80;;;;;;;25.67;69.40;100275.33;124881;1102;110205;-77
2023/08/26 00:26:59;;;;;;;12.37;6.70;;;;;;;25.65;69.09;100280.75;125002;1102;104220;-79
2023/08/26 00:29:30;;;;;;;12.50;6.60;;;;;;;25.64;68.91;100287.91;124899;1102;101900;-78
2023/08/26 00:32:02;;;;;;;14.17;6.87;;;;;;;25.64;69.39;100284.34;125002;1102;104316;-78
2023/08/26 00:34:33;;;;;;;12.30;6.50;;;;;;;25.64;68.90;100284.34;125950;1100;101862;-78
2023/08/26 00:37:05;;;;;;;11.60;6.00;;;;;;;25.65;69.27;100283.44;124864;1099;104268;-78
2023/08/26 00:39:36;;;;;;;16.30;7.13;;;;;;;25.63;69.16;100286.17;124889;1102;101849;-78
2023/08/26 00:42:08;;;;;;;13.73;6.33;;;;;;;25.61;69.30;100285.31;124898;1102;104166;-78
2023/08/26 00:44:39;;;;;;;10.67;6.40;;;;;;;25.61;69.26;100281.76;124880;1100;104174;-78
2023/08/26 00:47:11;;;;;;;12.73;6.60;;;;;;;25.62;69.07;100283.53;124981;1102;104258;-78
2023/08/26 00:49:42;;;;;;;11.93;6.73;;;;;;;25.58;69.09;100292.59;124952;1102;104207;-79
2023/08/26 00:52:13;;;;;;;10.50;6.17;;;;;;;25.53;69.36;100283.80;124888;1102;104316;-79
2023/08/26 00:54:45;;;;;;;14.60;7.00;;;;;;;25.52;69.36;100279.34;124781;1099;101982;-79
2023/08/26 00:57:16;;;;;;;12.97;6.83;;;;;;;25.51;69.06;100285.63;124774;1099;101954;-78
2023/08/26 00:59:47;;;;;;;10.90;6.70;;;;;;;25.50;68.83;100279.39;124853;1099;101988;-77
2023/08/26 01:02:19;;;;;;;11.43;6.20;;;;;;;25.49;69.48;100282.98;124788;1100;101836;-77
2023/08/26 01:04:50;;;;;;;10.60;6.50;;;;;;;25.46;69.04;100283.98;124734;1099;104242;-77
2023/08/26 01:07:21;;;;;;;13.53;6.53;;;;;;;25.45;68.90;100281.34;124721;1102;101979;-77
2023/08/26 01:09:53;;;;;;;14.83;6.80;;;;;;;25.41;69.11;100285.03;124686;1102;104201;-77
2023/08/26 01:12:34;;;;;;;11.50;6.60;;;;;;;25.38;69.09;100283.30;124692;1102;101865;-77
2023/08/26 01:15:10;;;;;;;11.27;6.13;;;;;;;25.35;69.10;100291.45;125341;1099;101925;-78
2023/08/26 01:17:43;;;;;;;10.47;6.30;;;;;;;25.34;69.46;100294.17;124678;1102;102058;-77
2023/08/26 01:20:16;;;;;;;13.10;6.83;;;;;;;25.30;69.46;100288.89;124609;1102;104273;-78
2023/08/26 01:22:51;;;;;;;11.63;6.40;;;;;;;25.29;69.63;100295.20;124673;1099;104317;-77
2023/08/26 01:25:23;;;;;;;11.23;6.53;;;;;;;25.28;69.81;100293.44;124751;1099;101881;-77
2023/08/26 01:27:55;;;;;;;15.17;6.60;;;;;;;25.26;69.58;100291.70;124587;1102;102094;-76
2023/08/26 01:30:28;;;;;;;10.50;6.23;;;;;;;25.26;69.66;100289.02;124717;1102;102168;-77
2023/08/26 01:33:04;;;;;;;11.97;6.55;;;;;;;25.23;69.24;100289.98;124723;1102;102115;-79
2023/08/26 01:35:41;;;;;;;16.20;6.77;;;;;;;25.20;69.51;100291.87;124747;1102;102292;-78
2023/08/26 01:38:16;;;;;;;12.77;6.67;;;;;;;25.19;69.46;100292.79;124966;1102;102342;-79
2023/08/26 01:40:56;;;;;;;13.57;5.90;;;;;;;25.15;69.88;100286.63;124741;1102;104191;-78
2023/08/26 01:43:28;;;;;;;14.17;6.60;;;;;;;25.14;69.57;100287.55;124837;1101;101945;-78
2023/08/26 01:45:59;;;;;;;14.63;6.17;;;;;;;25.15;69.77;100280.36;124797;1102;104255;-78
2023/08/26 01:48:30;;;;;;;13.30;6.53;;;;;;;25.14;69.57;100279.50;124745;1102;104067;-78
2023/08/26 01:51:02;;;;;;;10.43;6.00;;;;;;;25.10;69.94;100276.03;124774;1102;102119;-78
2023/08/26 01:53:33;;;;;;;12.35;6.70;;;;;;;25.08;69.68;100272.48;124767;1101;104313;-80
2023/08/26 01:56:05;;;;;;;11.47;6.67;;;;;;;25.05;69.71;100269.02;124832;1102;104259;-78
2023/08/26 01:58:36;;;;;;;11.43;6.47;;;;;;;25.03;69.95;100274.42;124647;1102;104185;-78
2023/08/26 02:01:08;;;;;;;10.90;5.97;;;;;;;25.03;69.81;100278.92;124796;1102;104402;-79
2023/08/26 02:03:39;;;;;;;12.40;6.77;;;;;;;25.01;69.73;100280.74;124839;1099;101823;-78
2023/08/26 02:06:11;;;;;;;12.27;6.13;;;;;;;24.98;70.20;100276.36;124774;1099;101920;-79
2023/08/26 02:08:42;;;;;;;10.33;6.30;;;;;;;24.96;69.99;100280.87;124757;1099;104214;-78
2023/08/26 02:11:14;;;;;;;10.83;6.63;;;;;;;24.94;70.33;100275.55;124724;1102;102338;-77
2023/08/26 02:13:45;;;;;;;12.67;6.80;;;;;;;24.93;70.00;100273.80;124718;1102;101996;-77
2023/08/26 02:16:16;;;;;;;11.83;5.97;;;;;;;24.92;70.04;100274.72;124782;1099;101804;-77
2023/08/26 02:18:48;;;;;;;10.63;6.50;;;;;;;24.90;70.34;100273.89;124853;1102;104198;-78
2023/08/26 02:21:19;;;;;;;12.57;6.83;;;;;;;24.89;70.66;100276.61;124749;1102;101897;-78
2023/08/26 02:23:50;;;;;;;13.90;6.73;;;;;;;24.89;70.49;100273.92;124899;1102;101976;-78
2023/08/26 02:26:22;;;;;;;14.83;7.13;;;;;;;24.87;70.70;100281.12;125806;1098;104054;-79
2023/08/26 02:28:54;;;;;;;15.40;6.80;;;;;;;24.86;70.66;100276.69;124769;1099;104179;-79
2023/08/26 02:31:25;;;;;;;16.97;6.90;;;;;;;24.79;70.75;100272.41;124920;1099;104220;-79
2023/08/26 02:33:56;;;;;;;10.67;6.57;;;;;;;24.71;70.90;100273.51;125101;1099;104204;-79
2023/08/26 02:36:28;;;;;;;16.90;7.17;;;;;;;24.69;70.71;100271.77;124865;1099;104217;-79
2023/08/26 02:38:59;;;;;;;14.80;7.00;;;;;;;24.68;70.75;100272.69;124779;1102;101932;-78
2023/08/26 02:41:30;;;;;;;12.63;6.83;;;;;;;24.67;70.86;100274.50;124780;1102;101814;-78
2023/08/26 02:44:02;;;;;;;15.90;7.30;;;;;;;24.69;70.99;100279.82;124732;1101;101839;-77
2023/08/26 02:46:33;;;;;;;14.97;6.93;;;;;;;24.70;71.22;100277.09;124766;1099;104280;-77
2023/08/26 02:49:05;;;;;;;12.20;6.53;;;;;;;24.73;70.99;100277.02;124810;1099;104220;-77
2023/08/26 02:51:36;;;;;;;12.57;6.80;;;;;;;24.75;71.09;100275.16;124780;1099;102173;-77
2023/08/26 02:54:08;;;;;;;13.37;7.00;;;;;;;24.78;71.57;100267.95;124639;1099;104248;-77
2023/08/26 02:56:39;;;;;;;14.40;6.97;;;;;;;24.78;71.14;100273.31;124462;1099;104268;-76
2023/08/26 02:59:10;;;;;;;12.53;6.70;;;;;;;24.79;71.39;100272.41;124594;1102;102211;-77
2023/08/26 03:01:42;;;;;;;12.60;6.57;;;;;;;24.78;71.19;100268.84;124661;1099;104306;-76
2023/08/26 03:04:15;;;;;;;15.23;6.90;;;;;;;24.81;71.32;100275.91;124630;1102;102318;-77
2023/08/26 03:06:46;;;;;;;15.57;6.87;;;;;;;24.80;71.48;100272.36;124637;1099;102037;-77
2023/08/26 03:09:18;;;;;;;16.73;7.43;;;;;;;24.81;71.28;100276.81;124611;1102;104179;-76
2023/08/26 03:11:49;;;;;;;17.23;7.17;;;;;;;24.80;71.23;100275.05;124603;1102;104186;-76
2023/08/26 03:14:20;;;;;;;17.77;7.40;;;;;;;24.80;71.24;100282.22;124553;1102;104194;-77
2023/08/26 03:16:52;;;;;;;14.57;6.73;;;;;;;24.78;71.04;100276.90;124468;1102;104182;-76
2023/08/26 03:19:23;;;;;;;14.27;7.17;;;;;;;24.75;71.71;100277.84;124607;1099;104149;-76
2023/08/26 03:21:56;;;;;;;18.47;7.40;;;;;;;24.72;71.27;100280.61;124701;1099;102038;-77
2023/08/26 03:24:29;;;;;;;13.97;7.10;;;;;;;24.71;71.84;100276.19;124709;1099;104185;-77
2023/08/26 03:27:03;;;;;;;11.40;7.00;;;;;;;24.70;71.58;100276.23;124811;1099;104197;-79
2023/08/26 03:29:37;;;;;;;13.63;6.70;;;;;;;24.67;71.49;100277.18;124730;1102;104072;-78
2023/08/26 03:32:10;;;;;;;16.87;7.03;;;;;;;24.67;71.85;100277.18;124596;1099;102111;-77
2023/08/26 03:34:42;;;;;;;14.47;7.03;;;;;;;24.65;71.29;100286.17;124686;1099;102269;-77
2023/08/26 03:37:14;;;;;;;19.43;7.70;;;;;;;24.63;71.56;100275.48;124672;1099;104157;-77
2023/08/26 03:39:46;;;;;;;16.30;6.77;;;;;;;24.63;71.44;100291.58;124618;1102;102695;-77
2023/08/26 03:42:17;;;;;;;12.40;6.60;;;;;;;24.63;71.23;100286.22;124689;1099;101976;-77
2023/08/26 03:44:48;;;;;;;14.33;6.60;;;;;;;24.64;71.55;100292.48;124743;1099;101936;-78
2023/08/26 03:47:20;;;;;;;13.43;6.70;;;;;;;24.64;71.63;100290.67;124676;1102;101833;-77
2023/08/26 03:49:51;;;;;;;14.00;6.77;;;;;;;24.65;71.78;100295.13;124704;1101;103014;-77
2023/08/26 03:52:23;;;;;;;15.97;6.67;;;;;;;24.65;71.45;100288.86;124683;1102;104259;-77
2023/08/26 03:54:56;;;;;;;11.73;6.60;;;;;;;24.65;71.96;100299.59;124792;1102;104162;-77
2023/08/26 03:57:28;;;;;;;11.88;6.87;;;;;;;24.66;71.95;100294.19;124770;1099;104220;-77
2023/08/26 03:59:59;;;;;;;12.93;6.67;;;;;;;24.65;71.81;100289.77;124700;1099;102029;-78
2023/08/26 04:02:31;;;;;;;18.20;8.33;;;;;;;24.69;71.63;100293.23;124685;1102;104195;-77
2023/08/26 04:05:03;;;;;;;13.83;7.13;;;;;;;24.72;72.51;100290.47;124615;1102;104166;-79
2023/08/26 04:07:35;;;;;;;10.73;6.70;;;;;;;24.74;72.06;100294.89;124718;1102;104505;-77
2023/08/26 04:10:07;;;;;;;14.43;7.07;;;;;;;24.75;72.16;100295.76;124640;1101;104090;-77
2023/08/26 04:12:39;;;;;;;18.48;7.47;;;;;;;24.77;71.85;100288.55;124635;1102;101792;-78
2023/08/26 04:15:12;;;;;;;15.20;7.10;;;;;;;24.81;72.29;100300.06;124706;1102;104121;-78
2023/08/26 04:17:44;;;;;;;13.40;6.65;;;;;;;24.82;71.92;100307.20;124749;1099;104278;-79
2023/08/26 04:20:16;;;;;;;12.90;7.10;;;;;;;24.85;72.32;100309.80;124776;1099;104341;-78
2023/08/26 04:22:47;;;;;;;12.03;6.77;;;;;;;24.89;72.38;100306.13;124670;1102;104205;-79
2023/08/26 04:25:18;;;;;;;16.97;6.83;;;;;;;24.93;72.08;100307.79;124720;1099;102023;-78
2023/08/26 04:27:50;;;;;;;14.20;7.17;;;;;;;24.98;72.45;100310.35;124755;1099;102016;-79
2023/08/26 04:30:21;;;;;;;17.43;7.53;;;;;;;25.01;72.50;100313.86;124742;1102;104182;-79
2023/08/26 04:32:52;;;;;;;17.03;7.47;;;;;;;25.06;72.49;100319.97;124675;1102;104329;-79
2023/08/26 04:35:24;;;;;;;16.27;8.27;;;;;;;25.10;72.29;100316.30;126030;1101;102399;-79
2023/08/26 04:37:56;;;;;;;17.47;7.63;;;;;;;25.14;72.60;100319.77;124758;1099;104172;-80
2023/08/26 04:40:27;;;;;;;11.90;6.93;;;;;;;25.17;72.52;100314.31;124778;1099;104217;-79
2023/08/26 04:42:58;;;;;;;14.30;7.23;;;;;;;25.19;72.16;100312.45;124898;1100;104210;-80
2023/08/26 04:45:30;;;;;;;14.63;6.70;;;;;;;25.23;72.77;100318.64;124800;1102;102186;-79
2023/08/26 04:48:01;;;;;;;19.17;7.43;;;;;;;25.26;72.57;100321.24;124717;1102;104060;-79
2023/08/26 04:50:33;;;;;;;13.10;7.17;;;;;;;25.30;72.52;100315.74;124828;1101;101909;-79
2023/08/26 04:53:05;;;;;;;11.20;7.20;;;;;;;25.34;72.23;100315.66;124768;1102;104325;-79
2023/08/26 04:55:36;;;;;;;14.90;7.40;;;;;;;25.36;72.53;100313.83;126034;1101;102052;-80
2023/08/26 04:58:09;;;;;;;14.77;7.37;;;;;;;25.38;72.52;100312.84;124932;1102;104149;-79
2023/08/26 05:00:45;;;;;;;15.85;7.15;;;;;;;25.41;72.53;100312.75;124948;1102;104262;-79
2023/08/26 05:03:16;;;;;;;12.20;6.77;;;;;;;25.44;72.60;100312.66;124740;1101;101884;-78
2023/08/26 05:05:47;;;;;;;12.40;6.90;;;;;;;25.48;72.71;100308.98;124962;1100;101826;-82
2023/08/26 05:08:19;;;;;;;13.27;7.33;;;;;;;25.50;72.54;100316.99;124931;1100;101941;-79
2023/08/26 05:10:50;;;;;;;9.70;6.57;;;;;;;25.47;72.13;100315.27;124874;1102;104255;-83
2023/08/26 05:13:21;;;;;;;10.40;6.63;;;;;;;25.50;72.80;100313.44;124768;1102;104246;-83
2023/08/26 05:15:52;;;;;;;18.93;6.70;;;;;;;25.55;72.17;100315.05;124806;1102;104105;-83
2023/08/26 05:18:24;;;;;;;12.03;6.53;;;;;;;25.60;72.69;100317.59;124820;1102;104242;-83
2023/08/26 05:20:55;;;;;;;13.60;7.20;;;;;;;25.63;72.79;100318.41;126013;1098;104223;-82
2023/08/26 05:23:27;;;;;;;14.27;6.93;;;;;;;25.66;72.55;100314.73;124900;1102;102009;-82
2023/08/26 05:25:58;;;;;;;10.80;6.70;;;;;;;25.71;72.64;100312.81;124859;1102;101910;-84
2023/08/26 05:28:29;;;;;;;11.90;6.50;;;;;;;25.73;72.44;100310.95;125147;1102;102341;-81
2023/08/26 05:31:01;;;;;;;12.43;7.10;;;;;;;25.77;72.05;100319.78;124863;1100;101998;-83
2023/08/26 05:33:33;;;;;;;14.57;6.93;;;;;;;25.77;72.03;100315.31;125463;1099;101991;-80
2023/08/26 05:36:05;;;;;;;11.57;6.80;;;;;;;25.74;72.60;100323.47;124882;1099;102077;-80
2023/08/26 05:38:36;;;;;;;12.03;6.57;;;;;;;25.80;72.41;100325.97;124900;1099;105010;-84
2023/08/26 05:41:08;;;;;;;13.97;6.73;;;;;;;25.87;72.39;100333.81;124949;1102;104272;-80
2023/08/26 05:43:40;;;;;;;13.47;6.63;;;;;;;25.94;71.97;100330.03;124946;1099;104288;-79
2023/08/26 05:46:11;;;;;;;12.40;7.13;;;;;;;26.01;72.13;100331.64;124807;1102;101968;-80
2023/08/26 05:48:42;;;;;;;14.63;7.00;;;;;;;26.07;72.17;100334.14;124911;1102;102165;-79
2023/08/26 05:51:14;;;;;;;11.20;6.60;;;;;;;26.13;72.16;100333.05;124737;1102;102805;-78
2023/08/26 05:53:45;;;;;;;12.70;6.40;;;;;;;26.18;71.87;100331.98;124857;1102;104191;-82
2023/08/26 05:56:16;;;;;;;13.20;7.00;;;;;;;26.21;71.83;100335.50;124985;1102;102426;-81
2023/08/26 05:58:48;;;;;;;12.80;7.00;;;;;;;26.24;72.03;100332.71;124852;1102;104239;-81
2023/08/26 06:01:20;;;;;;;11.13;6.47;;;;;;;26.30;71.71;100337.89;125035;1099;107035;-80
2023/08/26 06:03:53;;;;;;;13.25;6.83;;;;;;;26.35;71.49;100327.86;125099;1102;101815;-81
2023/08/26 06:06:24;;;;;;;13.67;7.00;;;;;;;26.38;71.91;100330.45;125132;1099;102084;-81
2023/08/26 06:08:56;;;;;;;11.43;6.30;;;;;;;26.44;71.33;100332.94;125164;1099;101804;-81
2023/08/26 06:11:28;;;;;;;13.80;6.67;;;;;;;26.48;71.13;100329.23;124947;1102;101966;-80
2023/08/26 06:14:00;;;;;;;12.10;6.83;;;;;;;26.51;71.05;100328.27;125549;1102;101961;-79
2023/08/26 06:16:31;;;;;;;14.97;6.83;;;;;;;26.60;71.53;100335.13;124837;1102;104159;-80
2023/08/26 06:19:03;;;;;;;10.93;6.60;;;;;;;26.66;70.92;100337.64;124753;1102;104278;-78
2023/08/26 06:21:34;;;;;;;12.83;7.10;;;;;;;26.73;71.08;100339.22;125182;1099;102029;-79
2023/08/26 06:24:07;;;;;;;11.17;6.50;;;;;;;26.82;70.49;100338.90;125047;1099;104213;-79
2023/08/26 06:26:38;;;;;;;13.62;6.40;;;;;;;26.92;70.02;100335.89;125547;1099;101720;-81
2023/08/26 06:29:10;;;;;;;13.05;6.20;;;;;;;26.96;69.89;100333.05;126182;1098;104172;-81
2023/08/26 06:31:42;;;;;;;13.37;6.30;;;;;;;27.01;69.94;100332.88;124936;1101;104115;-79
2023/08/26 06:34:14;;;;;;;13.00;6.40;;;;;;;27.06;69.76;100333.59;125085;1102;104293;-78
2023/08/26 06:36:46;;;;;;;12.80;6.43;;;;;;;27.11;69.46;100345.06;124780;1102;104274;-80
2023/08/26 06:39:18;;;;;;;15.88;7.03;;;;;;;27.14;69.66;100339.58;124839;1102;104185;-78
2023/08/26 06:41:49;;;;;;;11.60;6.47;;;;;;;27.16;68.92;100337.73;125144;1101;101873;-79
2023/08/26 06:44:21;;;;;;;10.93;6.30;;;;;;;27.20;69.21;100342.05;124846;1102;101959;-79
2023/08/26 06:46:54;;;;;;;13.93;7.10;;;;;;;27.31;69.21;100340.80;124624;1102;104259;-77
2023/08/26 06:49:25;;;;;;;11.57;6.37;;;;;;;27.38;68.73;100347.77;124720;1102;103353;-78
2023/08/26 06:51:56;;;;;;;13.50;6.70;;;;;;;27.47;68.43;100341.14;124673;1102;104239;-79
2023/08/26 06:54:28;;;;;;;9.47;6.67;;;;;;;27.58;68.50;100338.91;124793;1102;101820;-77
2023/08/26 06:56:59;;;;;;;13.03;6.57;;;;;;;27.65;68.21;100339.59;124750;1102;102141;-79
2023/08/26 06:59:30;;;;;;;14.07;6.83;;;;;;;27.72;67.43;100339.30;124864;1102;101794;-80
2023/08/26 07:02:02;;;;;;;11.60;6.33;;;;;;;27.79;67.46;100345.32;124839;1102;104242;-78
2023/08/26 07:04:34;;;;;;;13.97;7.10;;;;;;;27.89;67.34;100349.44;125794;1099;102019;-79
2023/08/26 07:07:05;;;;;;;14.25;7.10;;;;;;;27.94;66.88;100339.34;124922;1102;104240;-80
2023/08/26 07:09:36;;;;;;;12.37;6.70;;;;;;;28.07;66.13;100337.06;124718;1099;101935;-79
2023/08/26 07:12:09;;;;;;;15.40;6.93;;;;;;;28.21;65.88;100339.22;124738;1102;101887;-82
2023/08/26 07:14:40;;;;;;;12.87;6.53;;;;;;;28.41;66.04;100332.14;126087;1100;102038;-81
2023/08/26 07:17:11;;;;;;;10.40;6.37;;;;;;;28.57;65.88;100330.55;124889;1102;104085;-79
2023/08/26 07:19:43;;;;;;;12.97;7.10;;;;;;;28.72;65.40;100338.97;125063;1102;102775;-80
2023/08/26 07:22:14;;;;;;;14.77;6.40;;;;;;;28.91;65.19;100326.45;124721;1102;104311;-81
2023/08/26 07:24:45;;;;;;;12.55;6.35;;;;;;;29.05;64.56;100321.31;124993;1099;104661;-80
2023/08/26 07:27:18;;;;;;;16.07;7.40;;;;;;;29.22;64.49;100325.14;125269;1101;101982;-79
2023/08/26 07:29:49;;;;;;;13.73;6.27;;;;;;;29.35;63.91;100322.75;124924;1099;104270;-81
2023/08/26 07:32:21;;;;;;;10.97;6.53;;;;;;;29.45;63.36;100315.09;124820;1102;104163;-79
2023/08/26 07:34:54;;;;;;;11.83;6.63;;;;;;;29.58;63.43;100325.27;124817;1102;104233;-84
2023/08/26 07:37:25;;;;;;;9.53;6.03;;;;;;;29.70;63.01;100320.23;124902;1102;101813;-81
2023/08/26 07:39:57;;;;;;;12.43;6.40;;;;;;;29.87;62.67;100316.77;124952;1102;104198;-82
2023/08/26 07:42:28;;;;;;;14.20;6.43;;;;;;;29.94;61.87;100320.95;124886;1100;104230;-80
2023/08/26 07:44:59;;;;;;;11.40;6.20;;;;;;;30.06;61.85;100320.36;125083;1102;104067;-85
2023/08/26 07:47:31;;;;;;;14.50;6.40;;;;;;;30.16;60.74;100314.50;125078;1101;104258;-80
2023/08/26 07:50:02;;;;;;;12.70;6.73;;;;;;;30.27;60.66;100309.44;124983;1099;101744;-81
2023/08/26 07:52:33;;;;;;;12.07;6.53;;;;;;;30.37;60.01;100308.04;124838;1102;102067;-79
2023/08/26 07:55:08;;;;;;;11.03;6.43;;;;;;;30.45;59.32;100308.55;124792;1102;104194;-79
2023/08/26 07:57:40;;;;;;;12.07;6.63;;;;;;;30.59;59.57;100312.38;124876;1102;104392;-80
2023/08/26 08:00:14;;;;;;;12.23;6.77;;;;;;;30.70;59.18;100312.73;126050;1100;104178;-80
2023/08/26 08:02:47;;;;;;;12.07;6.40;;;;;;;30.80;58.84;100311.28;124977;1102;102210;-79
2023/08/26 08:05:19;;;;;;;12.97;6.57;;;;;;;30.93;58.29;100310.64;124857;1099;104193;-80
2023/08/26 08:07:50;;;;;;;13.23;6.60;;;;;;;31.00;57.59;100317.54;124837;1102;102739;-82
2023/08/26 08:10:22;;;;;;;9.17;6.37;;;;;;;31.09;57.07;100308.93;124971;1099;102000;-80
2023/08/26 08:12:53;;;;;;;12.27;6.67;;;;;;;31.16;57.24;100307.63;124831;1100;104173;-80
2023/08/26 08:15:24;;;;;;;12.83;6.50;;;;;;;31.26;56.96;100310.74;124749;1102;101814;-81
2023/08/26 08:17:57;;;;;;;11.13;6.60;;;;;;;31.46;56.51;100314.19;124701;1102;104251;-78
2023/08/26 08:20:29;;;;;;;8.20;5.87;;;;;;;31.64;56.41;100305.08;124675;1102;101836;-79
2023/08/26 08:23:00;;;;;;;14.60;5.93;;;;;;;31.72;55.98;100305.52;124654;1102;104118;-79
2023/08/26 08:25:32;;;;;;;12.60;6.10;;;;;;;31.86;55.18;100307.46;126020;1100;104194;-80
2023/08/26 08:28:04;;;;;;;12.97;6.37;;;;;;;31.96;54.12;100301.52;124795;1102;104194;-79
2023/08/26 08:30:36;;;;;;;13.37;6.50;;;;;;;32.06;54.42;100297.33;124590;1102;102150;-79
2023/08/26 08:33:07;;;;;;;9.83;6.10;;;;;;;32.18;53.91;100307.52;124770;1099;104117;-80
2023/08/26 08:35:39;;;;;;;9.73;6.33;;;;;;;32.29;53.43;100297.86;124733;1102;104169;-79
2023/08/26 08:38:10;;;;;;;12.50;6.30;;;;;;;32.42;52.84;100298.90;124605;1102;104268;-80
2023/08/26 08:40:42;;;;;;;11.37;6.30;;;;;;;32.54;52.35;100297.31;124918;1102;104214;-80
2023/08/26 08:43:14;;;;;;;12.07;5.97;;;;;;;32.63;52.30;100298.58;125294;1102;101951;-80
2023/08/26 08:45:46;;;;;;;11.63;5.75;;;;;;;32.75;51.87;100289.73;125249;1102;104113;-80
2023/08/26 08:48:18;;;;;;;11.80;6.23;;;;;;;32.83;51.25;100286.55;125048;1102;104163;-84
2023/08/26 08:50:49;;;;;;;11.17;6.13;;;;;;;32.86;51.32;100284.52;125120;1102;101859;-81
2023/08/26 08:53:26;;;;;;;8.50;5.83;;;;;;;32.96;50.36;100277.56;125039;1102;104245;-79
2023/08/26 08:55:58;;;;;;;12.67;6.67;;;;;;;33.08;49.32;100291.35;124682;1102;101990;-82
2023/08/26 08:58:31;;;;;;;12.13;6.17;;;;;;;33.10;48.51;100284.00;124807;1102;104233;-79
2023/08/26 09:01:04;;;;;;;13.32;6.17;;;;;;;33.12;48.05;100287.48;124625;1101;104239;-77
2023/08/26 09:03:35;;;;;;;11.87;6.30;;;;;;;33.13;47.99;100286.53;124577;1101;104098;-78
2023/08/26 09:06:07;;;;;;;9.00;6.20;;;;;;;33.19;48.07;100282.56;124373;1102;104272;-77
2023/08/26 09:08:38;;;;;;;10.37;6.13;;;;;;;33.25;47.74;100276.75;124534;1102;102223;-80
2023/08/26 09:11:10;;;;;;;11.73;6.00;;;;;;;33.31;47.70;100279.94;124667;1102;101887;-79
2023/08/26 09:13:42;;;;;;;10.03;5.80;;;;;;;33.38;46.58;100271.40;124581;1101;104275;-79
2023/08/26 09:16:13;;;;;;;13.50;6.37;;;;;;;33.53;46.33;100275.00;124747;1102;102080;-79
2023/08/26 09:18:45;;;;;;;13.07;6.50;;;;;;;33.68;45.92;100269.44;126000;1100;101794;-79
2023/08/26 09:21:19;;;;;;;17.13;6.07;;;;;;;33.92;45.55;100271.56;124532;1102;104175;-78
2023/08/26 09:23:50;;;;;;;12.60;6.33;;;;;;;34.03;45.50;100269.02;124557;1099;104233;-79
2023/08/26 09:26:25;;;;;;;9.80;6.13;;;;;;;34.06;45.64;100261.63;124325;1099;104338;-78
2023/08/26 09:28:56;;;;;;;10.57;6.37;;;;;;;34.13;44.41;100257.53;124366;1099;102109;-81
2023/08/26 09:31:28;;;;;;;15.20;5.83;;;;;;;34.22;43.54;100256.91;124453;1099;102090;-79
2023/08/26 09:34:03;;;;;;;11.00;6.00;;;;;;;34.28;42.39;100261.08;124405;1099;104172;-79
2023/08/26 09:36:42;;;;;;;12.87;5.97;;;;;;;34.39;43.00;100253.94;124540;1102;104271;-81
2023/08/26 09:39:17;;;;;;;13.57;6.50;;;;;;;34.45;42.13;100257.22;124495;1102;104188;-77
2023/08/26 09:41:49;;;;;;;8.97;5.73;;;;;;;34.54;41.49;100253.86;124341;1100;104269;-77
2023/08/26 09:44:21;;;;;;;10.37;5.63;;;;;;;34.51;41.08;100254.94;124372;1099;102418;-78
2023/08/26 09:46:55;;;;;;;10.47;5.70;;;;;;;34.51;40.99;100257.66;124265;1099;104265;-77
2023/08/26 09:49:27;;;;;;;13.73;6.57;;;;;;;34.57;40.99;100250.93;124321;1099;104227;-78
2023/08/26 09:51:58;;;;;;;10.40;5.80;;;;;;;34.67;41.32;100253.88;124573;1099;104163;-77
2023/08/26 09:54:31;;;;;;;12.83;6.23;;;;;;;34.79;41.35;100253.06;124401;1099;104173;-78
2023/08/26 09:57:03;;;;;;;14.10;5.90;;;;;;;34.92;40.55;100258.52;124340;1101;104182;-78
2023/08/26 09:59:34;;;;;;;12.40;5.87;;;;;;;35.02;40.16;100256.04;124448;1102;104169;-78
2023/08/26 10:02:20;;;;;;;9.43;5.73;;;;;;;35.10;40.12;100249.04;124425;1102;104418;-78
2023/08/26 10:04:56;;;;;;;10.13;6.03;;;;;;;35.22;39.29;100246.44;124382;1099;104173;-77
2023/08/26 10:07:31;;;;;;;11.53;6.20;;;;;;;35.28;38.75;100248.77;124287;1099;102351;-78
2023/08/26 10:10:09;;;;;;;15.57;6.07;;;;;;;35.31;38.33;100253.96;124758;1102;101836;-82
2023/08/26 10:12:43;;;;;;;13.20;6.00;;;;;;;35.33;38.19;100246.56;125064;1102;101937;-81
2023/08/26 10:15:18;;;;;;;10.13;5.67;;;;;;;35.34;38.03;100248.28;125064;1099;104239;-82
2023/08/26 10:17:53;;;;;;;11.73;5.80;;;;;;;35.35;37.73;100241.86;124744;1101;104172;-79
2023/08/26 10:20:25;;;;;;;7.17;5.10;;;;;;;35.32;36.44;100244.81;124837;1102;104386;-79
2023/08/26 10:22:58;;;;;;;8.17;5.60;;;;;;;35.33;36.76;100246.56;124859;1101;102055;-80
2023/08/26 10:25:31;;;;;;;9.27;5.53;;;;;;;35.36;36.04;100251.80;124516;1099;102002;-81
2023/08/26 10:28:04;;;;;;;10.60;5.60;;;;;;;35.40;35.73;100242.39;124823;1102;101929;-80
2023/08/26 10:30:36;;;;;;;10.00;5.70;;;;;;;35.33;35.45;100246.56;125031;1102;102096;-78
2023/08/26 10:33:08;;;;;;;9.97;5.80;;;;;;;35.35;35.59;100241.86;124341;1099;101832;-78
2023/08/26 10:35:41;;;;;;;11.03;6.00;;;;;;;35.36;35.70;100248.17;124683;1099;102118;-79
2023/08/26 10:38:15;;;;;;;13.27;5.83;;;;;;;35.38;35.58;100251.69;124328;1102;104246;-78
2023/08/26 10:40:46;;;;;;;10.70;5.50;;;;;;;35.37;35.71;100250.80;124298;1102;102056;-80
2023/08/26 10:43:18;;;;;;;13.23;5.97;;;;;;;35.51;35.99;100257.11;124522;1102;104725;-81
2023/08/26 10:45:51;;;;;;;8.87;5.43;;;;;;;35.61;35.52;100250.02;125374;1101;104219;-78
2023/08/26 10:48:25;;;;;;;;;;;;;;;35.56;35.48;100249.45;124413;1102;104626;-78
2023/08/26 10:51:01;;;;;;;;;;;;;;;35.42;35.41;100251.36;124318;1102;104230;-78
2023/08/26 10:53:43;;;;;;;12.50;5.80;;;;;;;35.38;35.02;100249.82;124460;1102;104363;-78
2023/08/26 10:56:21;;;;;;;10.33;6.00;;;;;;;35.42;34.86;100237.72;124332;1102;104166;-79
2023/08/26 10:58:52;;;;;;;10.00;5.77;;;;;;;35.51;34.48;100235.30;124414;1102;102080;-79
2023/08/26 11:01:23;;;;;;;8.87;5.63;;;;;;;35.55;34.12;100232.22;124435;1102;101961;-78
2023/08/26 11:03:55;;;;;;;14.80;6.40;;;;;;;35.62;34.44;100228.07;124575;1102;102075;-79
2023/08/26 11:06:28;;;;;;;13.10;5.80;;;;;;;35.75;34.16;100230.76;124529;1102;104418;-81
2023/08/26 11:08:59;;;;;;;11.87;5.37;;;;;;;35.90;33.95;100220.56;124340;1102;104178;-78
2023/08/26 11:11:31;;;;;;;12.83;5.90;;;;;;;36.03;33.60;100234.19;124764;1102;101985;-80
2023/08/26 11:14:02;;;;;;;10.90;5.20;;;;;;;36.14;33.33;100223.31;124463;1100;104351;-77
2023/08/26 11:16:35;;;;;;;9.37;5.80;;;;;;;36.17;33.57;100225.80;124493;1102;104337;-79
2023/08/26 11:19:08;;;;;;;11.80;5.80;;;;;;;36.17;33.38;100217.61;124421;1102;104221;-79
2023/08/26 11:21:40;;;;;;;10.45;5.80;;;;;;;36.20;33.29;100218.36;124599;1102;104172;-81
2023/08/26 11:24:11;;;;;;;10.93;5.97;;;;;;;36.15;32.99;100216.87;124261;1102;104182;-76